Time;durP1;ratioP1;P1;durP2;ratioP2;P2;SDS_P1;SDS_P2;PMS_P1;PMS_P2;Temp;Humidity;BMP_temperature;BMP_pressure;BME280_temperature;BME280_humidity;BME280_pressure;Samples;Min_cycle;Max_cycle;Signal;HPM_P1;HPM_P2
2020/12/18 00:01:21;;;;;;;32.15;17.08;;;11.00;99.90;;;;;;4769759;29;20041;-79
2020/12/18 00:03:47;;;;;;;36.22;18.58;;;11.00;99.90;;;;;;4784763;29;20125;-78
2020/12/18 00:06:14;;;;;;;35.17;19.52;;;11.00;99.90;;;;;;4769662;30;20031;-79
2020/12/18 00:08:40;;;;;;;34.95;19.25;;;11.00;99.90;;;;;;4766119;30;20059;-80
2020/12/18 00:11:06;;;;;;;27.00;17.20;;;11.00;99.90;;;;;;4774844;29;20417;-80
2020/12/18 00:13:32;;;;;;;28.45;15.85;;;11.00;99.90;;;;;;4786192;30;20031;-79
2020/12/18 00:15:58;;;;;;;28.02;15.50;;;11.00;99.90;;;;;;4779150;29;20046;-79
2020/12/18 00:18:25;;;;;;;31.50;17.10;;;11.00;99.90;;;;;;4768908;30;20104;-79
2020/12/18 00:20:52;;;;;;;32.83;17.23;;;11.00;99.90;;;;;;4769673;30;20138;-78
2020/12/18 00:23:18;;;;;;;34.00;18.23;;;11.10;99.90;;;;;;4755016;30;20043;-79
2020/12/18 00:25:47;;;;;;;26.48;15.70;;;11.00;99.90;;;;;;4785896;29;20521;-80
2020/12/18 00:28:14;;;;;;;29.17;17.23;;;11.00;99.90;;;;;;4767487;29;20446;-79
2020/12/18 00:30:40;;;;;;;25.15;14.70;;;10.90;99.90;;;;;;4776510;29;20035;-78
2020/12/18 00:33:07;;;;;;;27.88;15.27;;;10.80;99.90;;;;;;4793579;29;20044;-79
2020/12/18 00:35:34;;;;;;;28.45;16.80;;;10.80;99.90;;;;;;4785635;29;20032;-79
2020/12/18 00:38:00;;;;;;;33.25;18.15;;;10.70;99.90;;;;;;4766817;30;20550;-79
2020/12/18 00:40:26;;;;;;;30.88;18.88;;;10.60;99.90;;;;;;4754992;30;20042;-79
2020/12/18 00:42:52;;;;;;;33.30;17.83;;;10.60;99.90;;;;;;4768640;30;20123;-79
2020/12/18 00:45:18;;;;;;;32.50;17.00;;;10.60;99.90;;;;;;4769837;30;20035;-80
2020/12/18 00:47:44;;;;;;;34.60;18.38;;;10.60;99.90;;;;;;4768377;30;20043;-78
2020/12/18 00:50:11;;;;;;;31.60;17.42;;;10.60;99.90;;;;;;4777417;30;20036;-78
2020/12/18 00:52:37;;;;;;;29.08;16.80;;;10.60;99.90;;;;;;4754390;30;20118;-79
2020/12/18 00:55:03;;;;;;;30.63;17.38;;;10.70;99.90;;;;;;4775355;29;20062;-79
2020/12/18 00:57:30;;;;;;;25.77;14.27;;;10.70;99.90;;;;;;4769247;30;20079;-79
2020/12/18 00:59:56;;;;;;;27.40;16.25;;;10.70;99.90;;;;;;4767040;30;20039;-79
2020/12/18 01:02:42;;;;;;;30.02;16.05;;;10.70;99.90;;;;;;4768941;30;20044;-79
2020/12/18 01:05:09;;;;;;;28.63;15.60;;;10.50;99.90;;;;;;4753041;30;20059;-79
2020/12/18 01:07:35;;;;;;;32.40;16.13;;;10.50;99.90;;;;;;4767918;30;20561;-78
2020/12/18 01:10:01;;;;;;;32.08;15.98;;;10.50;99.90;;;;;;4779987;30;20047;-79
2020/12/18 01:12:30;;;;;;;32.72;16.10;;;10.50;99.90;;;;;;4791916;29;20125;-79
2020/12/18 01:14:56;;;;;;;28.38;14.98;;;10.50;99.90;;;;;;4772666;29;20047;-79
2020/12/18 01:17:22;;;;;;;29.48;15.68;;;10.40;99.90;;;;;;4751901;30;20401;-78
2020/12/18 01:19:52;;;;;;;27.30;15.70;;;10.50;99.90;;;;;;4789354;29;20031;-79
2020/12/18 01:22:18;;;;;;;25.92;15.30;;;10.50;99.90;;;;;;4753943;30;20094;-79
2020/12/18 01:24:46;;;;;;;23.90;14.82;;;10.50;99.90;;;;;;4783522;29;20040;-79
2020/12/18 01:27:13;;;;;;;29.33;14.63;;;10.50;99.90;;;;;;4783508;29;20039;-80
2020/12/18 01:29:39;;;;;;;22.98;13.90;;;10.50;99.90;;;;;;4781408;29;20085;-79
2020/12/18 01:32:07;;;;;;;23.30;13.70;;;10.40;99.90;;;;;;4769025;30;20035;-79
2020/12/18 01:34:35;;;;;;;22.85;13.93;;;10.40;99.90;;;;;;4785699;29;20039;-80
2020/12/18 01:37:01;;;;;;;29.00;14.65;;;10.30;99.90;;;;;;4785226;30;20031;-79
2020/12/18 01:39:45;;;;;;;25.30;13.48;;;10.30;99.90;;;;;;4784778;29;20031;-79
2020/12/18 01:42:11;;;;;;;25.60;13.27;;;10.30;99.90;;;;;;4770240;30;20046;-79
2020/12/18 01:44:38;;;;;;;28.33;14.02;;;10.30;99.90;;;;;;4770305;30;20119;-79
2020/12/18 01:47:30;;;;;;;28.77;13.40;;;10.20;99.90;;;;;;4769897;30;20032;-78
2020/12/18 01:50:03;;;;;;;27.08;14.25;;;10.20;99.90;;;;;;4767934;30;20039;-79
2020/12/18 01:52:33;;;;;;;26.83;14.25;;;10.20;99.90;;;;;;4752428;30;20036;-80
2020/12/18 01:55:05;;;;;;;;;;;10.20;99.90;;;;;;4782728;29;20138;-79
2020/12/18 01:57:40;;;;;;;29.45;14.73;;;10.20;99.90;;;;;;4781934;30;20434;-79
2020/12/18 02:00:08;;;;;;;25.13;14.05;;;10.10;99.90;;;;;;4753932;30;20092;-79
2020/12/18 02:02:44;;;;;;;29.40;15.35;;;10.10;99.90;;;;;;4768289;30;20055;-79
2020/12/18 02:05:30;;;;;;;26.02;15.63;;;10.20;99.90;;;;;;4761532;30;20039;-79
2020/12/18 02:08:03;;;;;;;28.33;14.80;;;10.10;99.90;;;;;;4751604;30;20040;-80
2020/12/18 02:10:59;;;;;;;31.45;14.73;;;10.10;99.90;;;;;;4756562;30;20051;-79
2020/12/18 02:13:27;;;;;;;27.77;14.57;;;10.20;99.90;;;;;;4784806;29;20036;-79
2020/12/18 02:15:55;;;;;;;27.83;14.77;;;10.20;99.90;;;;;;4754968;29;20043;-80
2020/12/18 02:18:31;;;;;;;28.90;15.40;;;10.20;99.90;;;;;;4785772;29;20027;-79
2020/12/18 02:20:58;;;;;;;31.77;16.65;;;10.30;99.90;;;;;;4762542;29;20057;-78
2020/12/18 02:23:24;;;;;;;31.75;14.80;;;10.30;99.90;;;;;;4799321;29;20051;-80
2020/12/18 02:26:07;;;;;;;29.75;14.93;;;10.40;99.90;;;;;;4785921;30;20031;-79
2020/12/18 02:28:41;;;;;;;35.00;15.80;;;10.40;99.90;;;;;;4799590;29;20059;-79
2020/12/18 02:31:08;;;;;;;31.73;15.30;;;10.40;99.90;;;;;;4766708;30;20418;-79
2020/12/18 02:33:54;;;;;;;31.33;16.05;;;10.40;99.90;;;;;;4785409;29;20100;-79
2020/12/18 02:36:26;;;;;;;26.85;13.93;;;10.40;99.90;;;;;;4769497;30;20047;-79
2020/12/18 02:39:00;;;;;;;31.80;17.45;;;10.40;99.90;;;;;;4769425;30;20475;-79
2020/12/18 02:41:27;;;;;;;32.25;16.38;;;10.40;99.90;;;;;;4767665;30;20130;-80
2020/12/18 02:44:07;;;;;;;32.05;16.45;;;10.40;99.90;;;;;;4785883;29;20035;-79
2020/12/18 02:46:42;;;;;;;29.52;15.50;;;10.40;99.90;;;;;;4769126;30;20054;-80
2020/12/18 02:49:08;;;;;;;27.35;14.93;;;10.40;99.90;;;;;;4784176;29;20035;-80
2020/12/18 02:51:44;;;;;;;34.63;15.32;;;10.40;99.90;;;;;;4786727;29;20132;-79
2020/12/18 02:54:43;;;;;;;26.88;14.55;;;10.50;99.90;;;;;;4738183;30;20047;-80
2020/12/18 02:57:35;;;;;;;27.67;14.77;;;10.60;99.90;;;;;;4766993;30;20510;-80
2020/12/18 03:00:12;;;;;;;31.10;14.85;;;10.60;99.90;;;;;;4780942;29;20062;-80
2020/12/18 03:02:43;;;;;;;27.52;14.35;;;10.60;99.90;;;;;;4785524;29;20096;-80
2020/12/18 03:05:10;;;;;;;26.90;14.40;;;10.60;99.90;;;;;;4798774;29;20041;-80
2020/12/18 03:08:05;;;;;;;24.65;13.20;;;10.70;99.90;;;;;;4780289;29;20058;-80
2020/12/18 03:10:32;;;;;;;24.42;14.00;;;10.60;99.90;;;;;;4798416;29;20075;-80
2020/12/18 03:12:59;;;;;;;24.52;14.45;;;10.60;99.90;;;;;;4793756;29;20039;-79
2020/12/18 03:15:25;;;;;;;22.65;12.50;;;10.60;99.90;;;;;;4766062;30;20447;-80
2020/12/18 03:18:02;;;;;;;26.05;14.25;;;10.50;99.90;;;;;;4767029;30;20040;-80
2020/12/18 03:20:30;;;;;;;23.80;13.43;;;10.50;99.90;;;;;;4750892;30;20039;-80
2020/12/18 03:23:15;;;;;;;26.17;13.43;;;10.40;99.90;;;;;;4779897;29;20525;-80
2020/12/18 03:26:04;;;;;;;23.83;12.52;;;10.50;99.90;;;;;;4768846;30;20564;-80
2020/12/18 03:28:36;;;;;;;26.77;14.40;;;10.40;99.90;;;;;;4778768;29;20065;-81
2020/12/18 03:31:05;;;;;;;24.25;13.32;;;10.40;99.90;;;;;;4780353;29;20042;-80
2020/12/18 03:33:31;;;;;;;23.15;12.13;;;10.40;99.90;;;;;;4781298;29;20510;-80
2020/12/18 03:36:09;;;;;;;25.65;14.85;;;10.40;99.90;;;;;;4766941;30;20070;-79
2020/12/18 03:38:36;;;;;;;25.10;13.20;;;10.40;99.90;;;;;;4784509;29;20034;-80
2020/12/18 03:41:06;;;;;;;24.77;13.10;;;10.40;99.90;;;;;;4783349;30;20031;-80
2020/12/18 03:43:33;;;;;;;21.20;12.70;;;10.30;99.90;;;;;;4767131;30;20043;-80
2020/12/18 03:46:00;;;;;;;25.27;13.15;;;10.40;99.90;;;;;;4768172;29;20036;-79
2020/12/18 03:48:35;;;;;;;24.67;13.00;;;10.40;99.90;;;;;;4798422;29;20035;-80
2020/12/18 03:51:24;;;;;;;25.48;12.70;;;10.40;99.90;;;;;;4779373;30;20711;-80
2020/12/18 03:53:51;;;;;;;23.58;12.18;;;10.40;99.90;;;;;;4766827;30;20043;-80
2020/12/18 03:56:29;;;;;;;22.08;13.27;;;10.40;99.90;;;;;;4784991;29;20122;-81
2020/12/18 03:59:06;;;;;;;21.95;11.57;;;10.40;99.90;;;;;;4784414;29;20142;-80
2020/12/18 04:01:46;;;;;;;22.13;11.55;;;10.40;99.90;;;;;;4768115;30;20049;-80
2020/12/18 04:04:12;;;;;;;24.52;12.63;;;10.50;99.90;;;;;;4781918;29;20500;-80
2020/12/18 04:06:39;;;;;;;21.27;12.07;;;10.40;99.90;;;;;;4767987;30;20032;-80
2020/12/18 04:09:05;;;;;;;21.85;12.07;;;10.40;99.90;;;;;;4798086;29;20089;-80
2020/12/18 04:11:41;;;;;;;22.92;11.48;;;10.40;99.90;;;;;;4780170;29;20174;-80
2020/12/18 04:14:43;;;;;;;23.15;13.13;;;10.40;99.90;;;;;;4769651;30;20132;-79
2020/12/18 04:17:22;;;;;;;17.23;11.75;;;10.40;99.90;;;;;;4780364;29;20044;-80
2020/12/18 04:19:54;;;;;;;22.05;12.20;;;10.40;99.90;;;;;;4753656;29;20509;-80
2020/12/18 04:22:21;;;;;;;16.70;9.80;;;10.40;99.90;;;;;;4768143;30;20047;-80
2020/12/18 04:25:08;;;;;;;15.93;10.20;;;10.40;99.90;;;;;;4791929;29;20507;-79
2020/12/18 04:27:40;;;;;;;18.38;10.75;;;10.40;99.90;;;;;;4781079;29;20116;-79
2020/12/18 04:30:08;;;;;;;18.95;11.27;;;10.40;99.90;;;;;;4795411;29;20035;-80
2020/12/18 04:32:37;;;;;;;19.40;10.50;;;10.40;99.90;;;;;;4766948;30;20046;-79
2020/12/18 04:35:04;;;;;;;21.20;10.32;;;10.40;99.90;;;;;;4771284;29;20031;-78
2020/12/18 04:37:56;;;;;;;16.02;8.18;;;10.40;99.90;;;;;;4772672;30;20066;-80
2020/12/18 04:40:29;;;;;;;;;;;10.40;99.90;;;;;;4771657;30;20064;-79
2020/12/18 04:43:07;;;;;;;23.52;10.88;;;10.40;99.90;;;;;;4753270;30;19925;-80
2020/12/18 04:45:34;;;;;;;20.42;12.00;;;10.40;99.90;;;;;;4739144;30;20113;-80
2020/12/18 04:48:11;;;;;;;22.23;12.75;;;10.30;99.90;;;;;;4753579;30;20502;-80
2020/12/18 04:50:42;;;;;;;20.95;11.70;;;10.30;99.90;;;;;;4783236;29;20035;-80
2020/12/18 04:53:32;;;;;;;22.27;10.95;;;10.30;99.90;;;;;;4794882;29;20066;-80
2020/12/18 04:56:23;;;;;;;21.35;11.25;;;10.30;99.90;;;;;;4769644;30;20036;-79
2020/12/18 04:59:04;;;;;;;19.02;11.73;;;10.30;99.90;;;;;;4761827;29;20512;-80
2020/12/18 05:01:54;;;;;;;22.30;12.27;;;10.30;99.90;;;;;;4770713;30;20068;-80
2020/12/18 05:04:21;;;;;;;20.30;11.27;;;10.30;99.90;;;;;;4785905;29;20040;-80
2020/12/18 05:07:10;;;;;;;20.85;11.57;;;10.30;99.90;;;;;;4778657;29;20035;-80
2020/12/18 05:09:52;;;;;;;20.33;11.88;;;10.20;99.90;;;;;;4776476;30;20062;-79
2020/12/18 05:12:29;;;;;;;18.52;11.38;;;10.20;99.90;;;;;;4757591;30;20051;-79
2020/12/18 05:14:55;;;;;;;24.50;12.18;;;10.20;99.90;;;;;;4785663;29;20059;-79
2020/12/18 05:17:33;;;;;;;21.38;12.25;;;10.20;99.90;;;;;;4762796;30;20036;-80
2020/12/18 05:20:00;;;;;;;26.58;12.93;;;10.20;99.90;;;;;;4747641;29;20036;-79
2020/12/18 05:22:32;;;;;;;23.70;11.93;;;10.10;99.90;;;;;;4787133;29;20507;-80
2020/12/18 05:25:17;;;;;;;23.30;13.50;;;10.10;99.90;;;;;;4770477;29;20035;-79
2020/12/18 05:27:44;;;;;;;22.65;12.27;;;10.10;99.90;;;;;;4767046;30;20046;-79
2020/12/18 05:30:12;;;;;;;21.73;11.43;;;10.10;99.90;;;;;;4780504;29;20038;-79
2020/12/18 05:32:57;;;;;;;24.25;13.02;;;10.20;99.90;;;;;;4786255;30;20080;-80
2020/12/18 05:35:31;;;;;;;23.38;13.07;;;10.10;99.90;;;;;;4770134;30;20038;-79
2020/12/18 05:38:08;;;;;;;23.27;12.48;;;10.10;99.90;;;;;;4786478;29;20074;-80
2020/12/18 05:40:59;;;;;;;25.67;13.00;;;10.20;99.90;;;;;;4776421;30;20043;-80
2020/12/18 05:43:41;;;;;;;22.05;12.60;;;10.20;99.90;;;;;;4770176;30;20092;-79
2020/12/18 05:46:42;;;;;;;20.10;11.48;;;10.10;99.90;;;;;;4776900;30;20189;-80
2020/12/18 05:49:29;;;;;;;22.02;11.80;;;10.20;99.90;;;;;;4782274;29;20047;-79
2020/12/18 05:52:02;;;;;;;23.05;12.20;;;10.20;99.90;;;;;;4752489;30;20498;-80
2020/12/18 05:54:50;;;;;;;22.80;12.68;;;10.20;99.90;;;;;;4752229;30;20038;-80
2020/12/18 05:57:17;;;;;;;19.85;11.18;;;10.10;99.90;;;;;;4792342;29;20490;-80
2020/12/18 05:59:54;;;;;;;21.33;11.77;;;10.10;99.90;;;;;;4783653;29;20023;-80
2020/12/18 06:02:35;;;;;;;21.63;12.15;;;10.10;99.90;;;;;;4769788;30;20039;-80
2020/12/18 06:05:14;;;;;;;23.40;12.18;;;10.10;99.90;;;;;;4769614;29;20122;-79
2020/12/18 06:07:59;;;;;;;23.73;12.57;;;10.10;99.90;;;;;;4769417;30;20039;-80
2020/12/18 06:10:34;;;;;;;22.92;12.18;;;10.10;99.90;;;;;;4770739;30;20051;-80
2020/12/18 06:13:17;;;;;;;30.08;13.98;;;10.10;99.90;;;;;;4760212;30;20063;-80
2020/12/18 06:16:10;;;;;;;18.58;11.68;;;10.10;99.90;;;;;;4752048;30;20043;-79
2020/12/18 06:19:05;;;;;;;20.77;11.98;;;10.10;99.90;;;;;;4782287;29;20046;-80
2020/12/18 06:21:53;;;;;;;19.13;11.15;;;10.10;99.90;;;;;;4770756;30;20097;-79
2020/12/18 06:24:26;;;;;;;21.13;11.65;;;10.00;99.90;;;;;;4797957;29;20424;-80
2020/12/18 06:27:17;;;;;;;23.35;11.45;;;10.00;99.90;;;;;;4771620;29;20120;-79
2020/12/18 06:30:09;;;;;;;21.63;12.75;;;10.00;99.90;;;;;;4757616;29;20128;-78
2020/12/18 06:32:55;;;;;;;21.63;12.52;;;10.10;99.90;;;;;;4785013;29;20127;-79
2020/12/18 06:35:55;;;;;;;23.98;12.60;;;10.20;99.90;;;;;;4765016;30;20089;-79
2020/12/18 06:38:44;;;;;;;23.00;13.20;;;10.10;99.90;;;;;;4767629;29;20078;-79
2020/12/18 06:41:22;;;;;;;24.85;13.45;;;10.20;99.90;;;;;;4767510;30;20051;-79
2020/12/18 06:44:26;;;;;;;22.70;13.75;;;10.20;99.90;;;;;;4754141;30;20052;-79
2020/12/18 06:47:14;;;;;;;25.02;13.35;;;10.20;99.90;;;;;;4758618;30;20482;-79
2020/12/18 06:50:14;;;;;;;24.67;12.38;;;10.30;99.90;;;;;;4765515;30;20126;-80
2020/12/18 06:53:08;;;;;;;21.60;12.73;;;10.30;99.90;;;;;;4785290;29;20074;-79
2020/12/18 06:55:52;;;;;;;27.08;14.13;;;10.30;99.90;;;;;;4771756;30;20036;-80
2020/12/18 06:58:36;;;;;;;27.67;14.05;;;10.20;99.90;;;;;;4768636;30;20059;-79
2020/12/18 07:01:02;;;;;;;31.65;15.60;;;10.20;99.90;;;;;;4783600;29;20085;-79
2020/12/18 07:03:38;;;;;;;28.98;15.10;;;10.30;99.90;;;;;;4798694;29;20414;-79
2020/12/18 07:06:12;;;;;;;28.48;16.25;;;10.30;99.90;;;;;;4785256;30;20031;-79
2020/12/18 07:08:40;;;;;;;28.17;15.50;;;10.30;99.90;;;;;;4782777;29;20445;-80
2020/12/18 07:11:12;;;;;;;30.42;15.95;;;10.40;99.90;;;;;;4793760;29;20039;-79
2020/12/18 07:13:47;;;;;;;28.67;14.63;;;10.30;99.90;;;;;;4768643;30;20039;-79
2020/12/18 07:16:16;;;;;;;30.20;15.77;;;10.30;99.90;;;;;;4768713;30;20035;-80
2020/12/18 07:18:43;;;;;;;29.92;16.48;;;10.30;99.90;;;;;;4753387;30;20525;-79
2020/12/18 07:21:12;;;;;;;31.40;15.40;;;10.30;99.90;;;;;;4759613;30;20084;-79
2020/12/18 07:23:43;;;;;;;30.13;16.30;;;10.30;99.90;;;;;;4759966;30;20050;-80
2020/12/18 07:26:10;;;;;;;29.42;16.08;;;10.40;99.90;;;;;;4790187;29;20406;-80
2020/12/18 07:28:41;;;;;;;25.90;14.88;;;10.40;99.90;;;;;;4751791;30;20043;-80
2020/12/18 07:31:17;;;;;;;25.48;15.68;;;10.40;99.90;;;;;;4782516;29;20046;-79
2020/12/18 07:33:44;;;;;;;30.10;15.48;;;10.50;99.90;;;;;;4783299;30;20118;-78
2020/12/18 07:36:11;;;;;;;30.50;16.35;;;10.50;99.90;;;;;;4775528;29;20038;-79
2020/12/18 07:38:38;;;;;;;32.10;17.83;;;10.50;99.90;;;;;;4752488;30;20031;-79
2020/12/18 07:41:07;;;;;;;32.67;18.00;;;10.50;99.90;;;;;;4792619;29;20068;-79
2020/12/18 07:43:34;;;;;;;32.63;18.17;;;10.50;99.90;;;;;;4790659;29;20409;-79
2020/12/18 07:46:09;;;;;;;33.00;17.85;;;10.60;99.90;;;;;;4775663;29;20031;-79
2020/12/18 07:48:37;;;;;;;32.08;17.77;;;10.60;99.90;;;;;;4765372;30;20097;-79
2020/12/18 07:51:09;;;;;;;34.90;18.77;;;10.60;99.90;;;;;;4751395;30;20027;-78
2020/12/18 07:53:38;;;;;;;32.90;17.48;;;10.70;99.90;;;;;;4767129;30;20096;-79
2020/12/18 07:56:11;;;;;;;28.42;16.38;;;10.70;99.90;;;;;;4782444;29;20046;-79
2020/12/18 07:58:45;;;;;;;39.10;18.40;;;10.80;99.90;;;;;;4779669;30;20046;-79
2020/12/18 08:01:23;;;;;;;32.72;17.48;;;10.80;99.90;;;;;;4769622;30;20487;-79
2020/12/18 08:03:54;;;;;;;32.33;17.40;;;10.80;99.90;;;;;;4779731;29;20673;-79
2020/12/18 08:06:42;;;;;;;35.13;19.08;;;10.90;99.90;;;;;;4792427;29;20122;-80
2020/12/18 08:09:13;;;;;;;31.45;16.15;;;11.00;99.90;;;;;;4784206;29;20055;-79
2020/12/18 08:11:42;;;;;;;35.38;18.75;;;11.00;99.90;;;;;;4785252;29;20039;-79
2020/12/18 08:14:09;;;;;;;32.00;17.38;;;11.00;99.90;;;;;;4752162;29;20043;-79
2020/12/18 08:16:36;;;;;;;30.80;16.27;;;11.10;99.90;;;;;;4776021;29;20096;-78
2020/12/18 08:19:08;;;;;;;31.45;17.95;;;11.20;99.90;;;;;;4783887;29;20076;-79
2020/12/18 08:21:37;;;;;;;34.13;18.17;;;11.30;99.90;;;;;;4785605;29;20024;-81
2020/12/18 08:24:34;;;;;;;33.22;19.60;;;11.30;99.90;;;;;;4768089;30;20053;-80
2020/12/18 08:27:12;;;;;;;31.75;18.77;;;11.40;99.90;;;;;;4780366;29;20035;-79
2020/12/18 08:29:39;;;;;;;33.15;17.48;;;11.50;99.90;;;;;;4781316;29;20115;-79
2020/12/18 08:32:12;;;;;;;39.75;20.08;;;11.50;99.90;;;;;;4783646;29;20066;-78
2020/12/18 08:34:40;;;;;;;33.53;17.50;;;11.50;99.90;;;;;;4782656;29;20036;-79
2020/12/18 08:37:06;;;;;;;37.25;19.33;;;11.60;99.90;;;;;;4791827;29;20082;-78
2020/12/18 08:39:34;;;;;;;29.95;17.85;;;11.60;99.90;;;;;;4785444;29;20135;-78
2020/12/18 08:42:02;;;;;;;31.15;17.77;;;11.70;99.90;;;;;;4782252;30;20399;-79
2020/12/18 08:44:40;;;;;;;33.45;17.90;;;11.80;99.90;;;;;;4769141;30;20518;-79
2020/12/18 08:47:20;;;;;;;36.63;20.05;;;11.90;99.90;;;;;;4785688;29;20043;-78
2020/12/18 08:49:47;;;;;;;39.22;19.40;;;11.90;99.90;;;;;;4772916;30;20043;-79
2020/12/18 08:52:14;;;;;;;32.15;18.30;;;12.00;99.90;;;;;;4782988;29;20494;-79
2020/12/18 08:54:42;;;;;;;31.95;16.98;;;12.10;99.90;;;;;;4777613;30;20077;-78
2020/12/18 08:57:26;;;;;;;31.60;17.23;;;12.10;99.90;;;;;;4776709;29;20073;-78
2020/12/18 09:00:11;;;;;;;33.78;16.80;;;12.20;99.90;;;;;;4783196;29;20054;-79
2020/12/18 09:02:50;;;;;;;32.67;17.33;;;12.30;99.90;;;;;;4795447;29;20133;-78
2020/12/18 09:05:23;;;;;;;30.92;16.55;;;12.40;99.90;;;;;;4796024;29;20031;-78
2020/12/18 09:07:59;;;;;;;33.90;19.13;;;12.40;99.90;;;;;;4783097;30;20050;-78
2020/12/18 09:10:53;;;;;;;33.55;17.95;;;12.40;99.90;;;;;;4784812;29;20059;-80
2020/12/18 09:13:20;;;;;;;;;;;12.50;99.90;;;;;;4779672;30;20071;-78
2020/12/18 09:16:02;;;;;;;27.75;15.20;;;12.60;99.90;;;;;;4766854;30;19928;-78
2020/12/18 09:18:36;;;;;;;28.48;15.25;;;12.60;99.90;;;;;;4784558;29;20084;-78
2020/12/18 09:21:13;;;;;;;28.67;16.08;;;12.60;99.90;;;;;;4768399;30;20409;-79
2020/12/18 09:23:44;;;;;;;27.17;15.88;;;12.60;99.90;;;;;;4767287;30;20579;-78
2020/12/18 09:26:10;;;;;;;25.42;14.52;;;12.60;99.90;;;;;;4773380;30;20040;-78
2020/12/18 09:28:39;;;;;;;28.85;15.75;;;12.70;99.90;;;;;;4784132;29;20035;-79
2020/12/18 09:31:08;;;;;;;30.23;17.35;;;12.70;99.90;;;;;;4768456;29;20036;-78
2020/12/18 09:33:38;;;;;;;29.95;17.92;;;12.70;99.90;;;;;;4767597;30;20038;-79
2020/12/18 09:36:10;;;;;;;30.85;17.48;;;12.80;99.90;;;;;;4769173;30;20121;-79
2020/12/18 09:38:44;;;;;;;34.50;18.15;;;12.80;99.90;;;;;;4768276;30;20028;-79
2020/12/18 09:41:13;;;;;;;29.35;16.52;;;13.00;99.90;;;;;;4768526;30;20039;-78
2020/12/18 09:43:40;;;;;;;31.02;17.33;;;13.00;99.90;;;;;;4781193;30;20128;-79
2020/12/18 09:46:13;;;;;;;32.08;17.40;;;13.00;99.90;;;;;;4784162;29;20039;-78
2020/12/18 09:48:43;;;;;;;30.38;19.05;;;13.00;99.90;;;;;;4784579;30;20507;-79
2020/12/18 09:51:10;;;;;;;36.67;20.35;;;13.10;99.90;;;;;;4775539;29;20398;-79
2020/12/18 09:53:37;;;;;;;34.95;20.10;;;13.30;99.90;;;;;;4766833;30;20031;-79
2020/12/18 09:56:06;;;;;;;31.90;18.83;;;13.40;99.90;;;;;;4784467;29;20681;-79
2020/12/18 09:58:33;;;;;;;30.88;17.55;;;13.50;99.90;;;;;;4777473;30;20581;-79
2020/12/18 10:00:59;;;;;;;38.17;18.25;;;13.40;99.90;;;;;;4784264;30;20084;-78
2020/12/18 10:03:26;;;;;;;34.00;20.10;;;13.40;99.90;;;;;;4782077;30;20348;-79
2020/12/18 10:05:52;;;;;;;33.10;18.88;;;13.40;99.90;;;;;;4767531;30;20465;-79
2020/12/18 10:08:18;;;;;;;31.88;20.00;;;13.50;99.90;;;;;;4764386;30;20119;-78
2020/12/18 10:10:46;;;;;;;28.90;17.83;;;13.70;99.90;;;;;;4789214;29;20055;-79
2020/12/18 10:13:17;;;;;;;37.38;19.83;;;13.80;99.90;;;;;;4783168;29;20097;-79
2020/12/18 10:15:44;;;;;;;33.70;18.17;;;13.90;99.90;;;;;;4785763;29;20035;-79
2020/12/18 10:18:10;;;;;;;32.33;16.55;;;14.00;99.90;;;;;;4767655;30;20744;-79
2020/12/18 10:20:37;;;;;;;27.88;16.20;;;13.90;99.90;;;;;;4768039;30;20207;-79
2020/12/18 10:23:03;;;;;;;28.75;15.75;;;13.90;99.90;;;;;;4795046;29;20045;-79
2020/12/18 10:25:32;;;;;;;30.95;16.75;;;14.00;99.90;;;;;;4766974;30;20042;-79
2020/12/18 10:28:02;;;;;;;25.40;14.80;;;14.10;99.90;;;;;;4767250;30;20039;-79
2020/12/18 10:30:29;;;;;;;27.20;15.65;;;14.10;99.90;;;;;;4782284;29;20197;-79
2020/12/18 10:32:55;;;;;;;31.73;16.63;;;14.10;99.90;;;;;;4783664;29;20117;-79
2020/12/18 10:35:22;;;;;;;30.02;18.20;;;14.10;99.90;;;;;;4781785;29;20027;-80
2020/12/18 10:37:50;;;;;;;28.85;16.98;;;14.20;99.90;;;;;;4764012;30;20084;-79
2020/12/18 10:40:19;;;;;;;25.20;14.70;;;14.30;99.90;;;;;;4782777;29;20068;-80
2020/12/18 10:42:50;;;;;;;27.33;15.25;;;14.50;99.90;;;;;;4781666;30;20047;-79
2020/12/18 10:45:19;;;;;;;27.27;15.13;;;14.70;99.90;;;;;;4763280;30;20031;-79
2020/12/18 10:47:45;;;;;;;26.70;13.82;;;14.80;99.90;;;;;;4767195;30;20043;-79
2020/12/18 10:50:12;;;;;;;25.02;15.68;;;14.80;99.90;;;;;;4766786;29;20107;-79
2020/12/18 10:52:38;;;;;;;24.23;13.77;;;15.10;99.90;;;;;;4783454;29;20085;-80
2020/12/18 10:55:05;;;;;;;21.55;13.02;;;15.10;99.90;;;;;;4788862;29;20093;-79
2020/12/18 10:57:31;;;;;;;27.20;14.82;;;15.10;99.90;;;;;;4792051;29;20495;-79
2020/12/18 10:59:57;;;;;;;23.67;14.07;;;15.20;99.90;;;;;;4767024;29;20041;-80
2020/12/18 11:02:24;;;;;;;23.55;14.80;;;15.40;99.90;;;;;;4772589;30;20126;-79
2020/12/18 11:04:50;;;;;;;27.25;15.70;;;15.50;99.90;;;;;;4788947;29;20443;-79
2020/12/18 11:07:16;;;;;;;30.83;17.92;;;15.80;99.90;;;;;;4777674;29;20039;-79
2020/12/18 11:09:43;;;;;;;20.95;12.80;;;15.90;99.90;;;;;;4783265;30;20089;-79
2020/12/18 11:12:09;;;;;;;30.35;14.70;;;15.80;99.90;;;;;;4767332;30;20039;-81
2020/12/18 11:14:37;;;;;;;20.65;12.27;;;16.00;99.90;;;;;;4767383;30;20157;-78
2020/12/18 11:17:03;;;;;;;21.10;13.52;;;16.10;99.90;;;;;;4766849;29;20080;-79
2020/12/18 11:19:29;;;;;;;24.70;14.57;;;15.90;99.90;;;;;;4751886;30;20436;-79
2020/12/18 11:21:55;;;;;;;22.17;14.27;;;15.60;99.90;;;;;;4782671;30;20394;-79
2020/12/18 11:24:21;;;;;;;21.63;12.60;;;15.60;99.90;;;;;;4776696;30;20496;-79
2020/12/18 11:26:52;;;;;;;22.73;11.93;;;15.30;99.90;;;;;;4780493;29;20047;-80
2020/12/18 11:29:19;;;;;;;16.17;9.85;;;15.40;99.90;;;;;;4766081;30;20110;-79
2020/12/18 11:31:47;;;;;;;17.90;9.80;;;15.30;99.90;;;;;;4779486;30;20040;-79
2020/12/18 11:34:13;;;;;;;19.70;10.57;;;15.30;99.90;;;;;;4771868;30;20070;-80
2020/12/18 11:36:40;;;;;;;10.63;7.47;;;15.50;99.90;;;;;;4779211;29;20031;-79
2020/12/18 11:39:06;;;;;;;18.25;9.73;;;15.60;99.90;;;;;;4751555;29;20040;-79
2020/12/18 11:41:33;;;;;;;17.83;9.85;;;15.70;99.90;;;;;;4765351;30;20487;-79
2020/12/18 11:43:59;;;;;;;19.35;10.95;;;15.90;99.90;;;;;;4782223;29;21004;-80
2020/12/18 11:46:26;;;;;;;10.43;6.03;;;16.20;99.90;;;;;;4780988;30;20436;-80
2020/12/18 11:48:52;;;;;;;7.85;5.30;;;16.40;99.90;;;;;;4781628;29;20039;-79
2020/12/18 11:51:18;;;;;;;12.00;6.07;;;16.40;99.90;;;;;;4766745;30;20031;-79
2020/12/18 11:53:44;;;;;;;13.23;8.05;;;16.40;99.90;;;;;;4782499;30;20043;-79
2020/12/18 11:56:11;;;;;;;15.98;9.38;;;16.50;99.90;;;;;;4782329;29;20483;-80
2020/12/18 11:58:37;;;;;;;14.77;8.77;;;16.50;99.90;;;;;;4770796;29;20035;-79
2020/12/18 12:01:03;;;;;;;12.00;8.18;;;16.50;99.90;;;;;;4782297;29;20439;-79
2020/12/18 12:03:31;;;;;;;10.18;6.88;;;16.50;99.90;;;;;;4791851;29;20243;-79
2020/12/18 12:05:58;;;;;;;14.50;8.45;;;16.60;99.90;;;;;;4790649;29;20039;-79
2020/12/18 12:08:24;;;;;;;12.18;7.88;;;16.50;99.90;;;;;;4751236;30;20087;-79
2020/12/18 12:10:50;;;;;;;10.77;6.45;;;16.50;99.90;;;;;;4791102;29;20066;-80
2020/12/18 12:13:16;;;;;;;12.82;6.95;;;16.60;99.90;;;;;;4782575;29;20031;-79
2020/12/18 12:15:42;;;;;;;10.18;5.63;;;16.30;99.90;;;;;;4758129;30;20101;-78
2020/12/18 12:18:12;;;;;;;10.05;5.95;;;16.40;99.90;;;;;;4765046;29;20486;-79
2020/12/18 12:20:39;;;;;;;8.55;5.47;;;16.30;99.90;;;;;;4771954;30;20642;-80
2020/12/18 12:23:06;;;;;;;13.95;6.72;;;16.50;99.90;;;;;;4751092;29;20051;-80
2020/12/18 12:25:32;;;;;;;10.00;5.93;;;16.40;99.90;;;;;;4766378;30;20031;-81
2020/12/18 12:27:59;;;;;;;11.35;5.53;;;16.10;99.90;;;;;;4780248;29;20040;-80
2020/12/18 12:30:26;;;;;;;8.85;5.22;;;15.70;99.90;;;;;;4764733;30;20037;-79
2020/12/18 12:32:54;;;;;;;7.57;4.80;;;15.50;99.90;;;;;;4769073;30;20449;-79
2020/12/18 12:35:25;;;;;;;8.90;5.28;;;15.40;99.90;;;;;;4779936;29;20039;-79
2020/12/18 12:37:52;;;;;;;13.10;7.22;;;15.40;99.90;;;;;;4750817;30;20031;-78
2020/12/18 12:40:18;;;;;;;10.85;6.00;;;15.40;99.90;;;;;;4767043;30;20097;-80
2020/12/18 12:42:45;;;;;;;7.82;5.30;;;15.50;99.90;;;;;;4766526;30;20495;-83
2020/12/18 12:45:11;;;;;;;10.13;5.32;;;15.70;99.90;;;;;;4766264;30;20092;-82
2020/12/18 12:47:37;;;;;;;6.32;4.95;;;15.80;99.90;;;;;;4750681;30;20398;-82
2020/12/18 12:50:05;;;;;;;8.07;4.85;;;16.20;99.90;;;;;;4788906;29;20114;-81
2020/12/18 12:52:33;;;;;;;8.40;4.95;;;16.50;99.90;;;;;;4769264;30;20110;-84
2020/12/18 12:54:59;;;;;;;7.43;5.18;;;16.70;99.90;;;;;;4785346;30;20044;-79